04:18
Airports
History
Links
Donate
Help keep this website running!
PayPal
Bitcoin
Information on this page is community maintained and may be outdated or inaccurate and is intended for reference only or PC simulator navigating!
Always use approved charts for navigating.
LIPN
VERONA BOSCOMANTICO
VERONA BOSCOMANTICO (LIPN)
Verona, Veneto, Italy (37139)
(U)
Lat/Lng:45° 28' 19.26" N / 10° 55' 40.5" E
45.472017 / 10.927918
Elevation:286'ft 87mMSL
ID / ICAO:LIPN
Runways:1
Longest:(08-26) 1,013.9m 3,326ft Asphalt
Distance To
Airport ID:
Nearby VORs <50NM
Nearby NDBs
Nearby WeatherUpdated 03-28-17 03:50 GMT
Nearby weather at LIPX, VILLAFRANCA located 5.5 nautical miles from LIPN
Altimeter: 30.24
Visibility: 6.2 statute miles
Wind: 4 knots (340°)
Temp: 6°c 43°f
Humidity: 81.0%

METAR: LIPX 280350Z 34004KT CAVOK 06/03 Q1024

(Powered by phpweather)
Runway 08 / 26
Dimensions:1013.9 x 22m 3326' x 72'ft
Surface:Asphalt
Runway 08 [A]Runway 26 [B]
Heading:074°TH 254°TH
Lat:
Lng:
45° 28' 14.94"N
10° 55' 17.99"E
45° 28' 23.58"N
10° 56' 3.02"E
Google Map
Nearby Airports
(C) VILLAFRANCA 5.5 NM
LIPX (WX) SSW 199°
4 Mantova 24.1 NM
LIDM SSW 195°
(C) Montichiari 29.1 NM
LIPO W 264°
4 Legnago 29.4 NM
LIDL SE 142°
(X) [X] VICENZA 30.0 NM
LIPT (WX) ENE 76°
(C) Thiene 30.9 NM
LIDH ENE 62°
(C) GHEDI 32.1 NM
LIPL (WX) W 265°
VFR Chart
Flight Planning at SkyVector.com